sensor_id;sensor_type;location;lat;lon;timestamp;P1;durP1;ratioP1;P2;durP2;ratioP2
71771;SDS011;59606;52.138;5.424;2024-02-26T00:01:51;8.38;;;2.85;;
71771;SDS011;59606;52.138;5.424;2024-02-26T00:04:18;4.65;;;2.70;;
71771;SDS011;59606;52.138;5.424;2024-02-26T00:06:45;6.67;;;3.17;;
71771;SDS011;59606;52.138;5.424;2024-02-26T00:09:11;7.32;;;2.83;;
71771;SDS011;59606;52.138;5.424;2024-02-26T00:11:38;6.50;;;2.85;;
71771;SDS011;59606;52.138;5.424;2024-02-26T00:14:05;5.32;;;2.70;;
71771;SDS011;59606;52.138;5.424;2024-02-26T00:16:31;6.75;;;3.15;;
71771;SDS011;59606;52.138;5.424;2024-02-26T00:18:58;6.77;;;3.40;;
71771;SDS011;59606;52.138;5.424;2024-02-26T00:21:25;5.75;;;2.83;;
71771;SDS011;59606;52.138;5.424;2024-02-26T00:23:52;7.72;;;3.10;;
71771;SDS011;59606;52.138;5.424;2024-02-26T00:26:20;5.18;;;2.83;;
71771;SDS011;59606;52.138;5.424;2024-02-26T00:28:46;6.82;;;3.28;;
71771;SDS011;59606;52.138;5.424;2024-02-26T00:31:13;4.40;;;3.00;;
71771;SDS011;59606;52.138;5.424;2024-02-26T00:33:39;6.03;;;3.47;;
71771;SDS011;59606;52.138;5.424;2024-02-26T00:36:07;5.25;;;2.85;;
71771;SDS011;59606;52.138;5.424;2024-02-26T00:38:33;6.70;;;3.55;;
71771;SDS011;59606;52.138;5.424;2024-02-26T00:41:02;5.90;;;3.70;;
71771;SDS011;59606;52.138;5.424;2024-02-26T00:43:29;5.50;;;3.20;;
71771;SDS011;59606;52.138;5.424;2024-02-26T00:45:55;7.60;;;3.58;;
71771;SDS011;59606;52.138;5.424;2024-02-26T00:48:22;6.07;;;3.40;;
71771;SDS011;59606;52.138;5.424;2024-02-26T00:50:48;6.07;;;2.88;;
71771;SDS011;59606;52.138;5.424;2024-02-26T00:53:15;6.35;;;3.60;;
71771;SDS011;59606;52.138;5.424;2024-02-26T00:55:42;6.67;;;3.47;;
71771;SDS011;59606;52.138;5.424;2024-02-26T00:58:09;6.75;;;3.05;;
71771;SDS011;59606;52.138;5.424;2024-02-26T01:00:35;6.70;;;3.53;;
71771;SDS011;59606;52.138;5.424;2024-02-26T01:03:02;7.35;;;3.60;;
71771;SDS011;59606;52.138;5.424;2024-02-26T01:05:30;6.10;;;3.35;;
71771;SDS011;59606;52.138;5.424;2024-02-26T01:07:56;6.33;;;3.37;;
71771;SDS011;59606;52.138;5.424;2024-02-26T01:10:23;6.50;;;3.83;;
71771;SDS011;59606;52.138;5.424;2024-02-26T01:12:50;4.65;;;3.22;;
71771;SDS011;59606;52.138;5.424;2024-02-26T01:15:16;6.10;;;3.30;;
71771;SDS011;59606;52.138;5.424;2024-02-26T01:17:45;6.30;;;3.67;;
71771;SDS011;59606;52.138;5.424;2024-02-26T01:20:12;7.40;;;3.83;;
71771;SDS011;59606;52.138;5.424;2024-02-26T01:22:38;6.63;;;3.40;;
71771;SDS011;59606;52.138;5.424;2024-02-26T01:25:07;10.03;;;3.60;;
71771;SDS011;59606;52.138;5.424;2024-02-26T01:27:34;6.75;;;3.40;;
71771;SDS011;59606;52.138;5.424;2024-02-26T01:30:01;7.35;;;3.53;;
71771;SDS011;59606;52.138;5.424;2024-02-26T01:32:31;7.47;;;3.80;;
71771;SDS011;59606;52.138;5.424;2024-02-26T01:34:58;7.85;;;3.72;;
71771;SDS011;59606;52.138;5.424;2024-02-26T01:37:24;7.00;;;3.20;;
71771;SDS011;59606;52.138;5.424;2024-02-26T01:39:51;6.47;;;3.30;;
71771;SDS011;59606;52.138;5.424;2024-02-26T01:42:17;11.07;;;3.78;;
71771;SDS011;59606;52.138;5.424;2024-02-26T01:44:46;8.05;;;3.28;;
71771;SDS011;59606;52.138;5.424;2024-02-26T01:47:13;10.13;;;3.85;;
71771;SDS011;59606;52.138;5.424;2024-02-26T01:49:40;7.10;;;3.47;;
71771;SDS011;59606;52.138;5.424;2024-02-26T01:52:07;6.78;;;3.60;;
71771;SDS011;59606;52.138;5.424;2024-02-26T01:54:36;6.45;;;3.25;;
71771;SDS011;59606;52.138;5.424;2024-02-26T01:57:04;7.38;;;3.40;;
71771;SDS011;59606;52.138;5.424;2024-02-26T01:59:32;6.38;;;3.33;;
71771;SDS011;59606;52.138;5.424;2024-02-26T02:02:00;8.27;;;3.80;;
71771;SDS011;59606;52.138;5.424;2024-02-26T02:04:29;7.10;;;3.63;;
71771;SDS011;59606;52.138;5.424;2024-02-26T02:06:57;7.70;;;3.40;;
71771;SDS011;59606;52.138;5.424;2024-02-26T02:09:27;6.82;;;3.90;;
71771;SDS011;59606;52.138;5.424;2024-02-26T02:11:54;6.85;;;3.22;;
71771;SDS011;59606;52.138;5.424;2024-02-26T02:14:22;8.20;;;4.23;;
71771;SDS011;59606;52.138;5.424;2024-02-26T02:16:48;6.50;;;3.60;;
71771;SDS011;59606;52.138;5.424;2024-02-26T02:19:15;8.65;;;3.42;;
71771;SDS011;59606;52.138;5.424;2024-02-26T02:21:41;7.78;;;3.83;;
71771;SDS011;59606;52.138;5.424;2024-02-26T02:24:08;6.57;;;3.45;;
71771;SDS011;59606;52.138;5.424;2024-02-26T02:26:36;6.87;;;3.50;;
71771;SDS011;59606;52.138;5.424;2024-02-26T02:29:04;6.75;;;3.60;;
71771;SDS011;59606;52.138;5.424;2024-02-26T02:31:36;7.00;;;2.97;;
71771;SDS011;59606;52.138;5.424;2024-02-26T02:34:02;6.82;;;3.30;;
71771;SDS011;59606;52.138;5.424;2024-02-26T02:36:29;7.45;;;3.35;;
71771;SDS011;59606;52.138;5.424;2024-02-26T02:38:56;6.50;;;3.23;;
71771;SDS011;59606;52.138;5.424;2024-02-26T02:41:23;8.55;;;3.88;;
71771;SDS011;59606;52.138;5.424;2024-02-26T02:43:50;4.70;;;2.42;;
71771;SDS011;59606;52.138;5.424;2024-02-26T02:46:16;7.18;;;3.90;;
71771;SDS011;59606;52.138;5.424;2024-02-26T02:48:43;8.05;;;3.65;;
71771;SDS011;59606;52.138;5.424;2024-02-26T02:51:11;7.70;;;3.30;;
71771;SDS011;59606;52.138;5.424;2024-02-26T02:53:37;9.73;;;3.67;;
71771;SDS011;59606;52.138;5.424;2024-02-26T02:56:04;6.22;;;3.00;;
71771;SDS011;59606;52.138;5.424;2024-02-26T02:58:31;6.25;;;3.20;;
71771;SDS011;59606;52.138;5.424;2024-02-26T03:00:58;7.90;;;3.38;;
71771;SDS011;59606;52.138;5.424;2024-02-26T03:03:49;6.87;;;3.10;;
71771;SDS011;59606;52.138;5.424;2024-02-26T03:06:15;7.78;;;3.25;;
71771;SDS011;59606;52.138;5.424;2024-02-26T03:08:42;7.60;;;3.47;;
71771;SDS011;59606;52.138;5.424;2024-02-26T03:11:12;7.97;;;3.65;;
71771;SDS011;59606;52.138;5.424;2024-02-26T03:13:41;7.07;;;3.22;;
71771;SDS011;59606;52.138;5.424;2024-02-26T03:16:08;10.43;;;3.80;;
71771;SDS011;59606;52.138;5.424;2024-02-26T03:18:34;8.38;;;3.97;;
71771;SDS011;59606;52.138;5.424;2024-02-26T03:21:02;7.50;;;3.78;;
71771;SDS011;59606;52.138;5.424;2024-02-26T03:23:29;8.13;;;4.03;;
71771;SDS011;59606;52.138;5.424;2024-02-26T03:25:58;8.10;;;4.00;;
71771;SDS011;59606;52.138;5.424;2024-02-26T03:28:24;8.47;;;4.07;;
71771;SDS011;59606;52.138;5.424;2024-02-26T03:30:51;9.43;;;4.15;;
71771;SDS011;59606;52.138;5.424;2024-02-26T03:33:18;10.73;;;3.85;;
71771;SDS011;59606;52.138;5.424;2024-02-26T03:35:44;8.40;;;4.45;;
71771;SDS011;59606;52.138;5.424;2024-02-26T03:38:11;8.02;;;4.05;;
71771;SDS011;59606;52.138;5.424;2024-02-26T03:40:38;8.47;;;4.10;;
71771;SDS011;59606;52.138;5.424;2024-02-26T03:43:04;10.63;;;5.07;;
71771;SDS011;59606;52.138;5.424;2024-02-26T03:45:33;8.52;;;3.67;;
71771;SDS011;59606;52.138;5.424;2024-02-26T03:48:00;11.40;;;4.55;;
71771;SDS011;59606;52.138;5.424;2024-02-26T03:50:26;9.80;;;4.30;;
71771;SDS011;59606;52.138;5.424;2024-02-26T03:52:53;9.33;;;4.17;;
71771;SDS011;59606;52.138;5.424;2024-02-26T03:55:22;9.18;;;4.63;;
71771;SDS011;59606;52.138;5.424;2024-02-26T03:57:53;8.82;;;4.32;;
71771;SDS011;59606;52.138;5.424;2024-02-26T04:00:20;9.30;;;4.43;;
71771;SDS011;59606;52.138;5.424;2024-02-26T04:02:48;12.07;;;4.72;;
71771;SDS011;59606;52.138;5.424;2024-02-26T04:05:15;10.03;;;4.67;;
71771;SDS011;59606;52.138;5.424;2024-02-26T04:07:42;12.27;;;5.05;;
71771;SDS011;59606;52.138;5.424;2024-02-26T04:10:12;8.48;;;4.03;;
71771;SDS011;59606;52.138;5.424;2024-02-26T04:12:39;9.73;;;4.57;;
71771;SDS011;59606;52.138;5.424;2024-02-26T04:15:10;8.38;;;4.10;;
71771;SDS011;59606;52.138;5.424;2024-02-26T04:17:37;9.23;;;4.00;;
71771;SDS011;59606;52.138;5.424;2024-02-26T04:20:05;9.00;;;4.32;;
71771;SDS011;59606;52.138;5.424;2024-02-26T04:22:32;8.90;;;4.55;;
71771;SDS011;59606;52.138;5.424;2024-02-26T04:24:59;10.43;;;4.72;;
71771;SDS011;59606;52.138;5.424;2024-02-26T04:28:00;9.52;;;4.40;;
71771;SDS011;59606;52.138;5.424;2024-02-26T04:30:22;7.40;;;3.70;;
71771;SDS011;59606;52.138;5.424;2024-02-26T04:32:49;8.60;;;4.20;;
71771;SDS011;59606;52.138;5.424;2024-02-26T04:35:16;7.30;;;3.95;;
71771;SDS011;59606;52.138;5.424;2024-02-26T04:37:42;8.07;;;3.97;;
71771;SDS011;59606;52.138;5.424;2024-02-26T04:40:09;8.75;;;4.55;;
71771;SDS011;59606;52.138;5.424;2024-02-26T04:42:36;12.57;;;4.43;;
71771;SDS011;59606;52.138;5.424;2024-02-26T04:45:02;8.57;;;4.60;;
71771;SDS011;59606;52.138;5.424;2024-02-26T04:47:29;7.53;;;3.58;;
71771;SDS011;59606;52.138;5.424;2024-02-26T04:49:56;8.20;;;4.20;;
71771;SDS011;59606;52.138;5.424;2024-02-26T04:52:23;7.72;;;3.65;;
71771;SDS011;59606;52.138;5.424;2024-02-26T04:54:50;8.27;;;3.93;;
71771;SDS011;59606;52.138;5.424;2024-02-26T04:57:19;11.25;;;4.43;;
71771;SDS011;59606;52.138;5.424;2024-02-26T04:59:51;9.38;;;4.63;;
71771;SDS011;59606;52.138;5.424;2024-02-26T05:02:18;7.57;;;3.60;;
71771;SDS011;59606;52.138;5.424;2024-02-26T05:04:45;10.07;;;4.50;;
71771;SDS011;59606;52.138;5.424;2024-02-26T05:07:11;8.33;;;4.00;;
71771;SDS011;59606;52.138;5.424;2024-02-26T05:09:39;8.57;;;4.32;;
71771;SDS011;59606;52.138;5.424;2024-02-26T05:12:06;9.98;;;4.47;;
71771;SDS011;59606;52.138;5.424;2024-02-26T05:14:34;10.35;;;5.10;;
71771;SDS011;59606;52.138;5.424;2024-02-26T05:17:01;11.70;;;5.32;;
71771;SDS011;59606;52.138;5.424;2024-02-26T05:19:27;10.43;;;4.20;;
71771;SDS011;59606;52.138;5.424;2024-02-26T05:21:54;9.90;;;4.47;;
71771;SDS011;59606;52.138;5.424;2024-02-26T05:24:21;11.65;;;4.93;;
71771;SDS011;59606;52.138;5.424;2024-02-26T05:26:49;10.50;;;5.15;;
71771;SDS011;59606;52.138;5.424;2024-02-26T05:29:16;10.13;;;4.38;;
71771;SDS011;59606;52.138;5.424;2024-02-26T05:31:43;9.33;;;4.33;;
71771;SDS011;59606;52.138;5.424;2024-02-26T05:34:09;8.50;;;4.72;;
71771;SDS011;59606;52.138;5.424;2024-02-26T05:36:36;9.50;;;5.10;;
71771;SDS011;59606;52.138;5.424;2024-02-26T05:39:03;12.25;;;4.93;;
71771;SDS011;59606;52.138;5.424;2024-02-26T05:41:30;11.32;;;5.18;;
71771;SDS011;59606;52.138;5.424;2024-02-26T05:43:58;11.10;;;5.30;;
71771;SDS011;59606;52.138;5.424;2024-02-26T05:46:25;10.05;;;4.97;;
71771;SDS011;59606;52.138;5.424;2024-02-26T05:48:53;10.70;;;5.00;;
71771;SDS011;59606;52.138;5.424;2024-02-26T05:51:20;13.65;;;5.70;;
71771;SDS011;59606;52.138;5.424;2024-02-26T05:53:47;9.45;;;5.10;;
71771;SDS011;59606;52.138;5.424;2024-02-26T05:56:23;10.40;;;5.27;;
71771;SDS011;59606;52.138;5.424;2024-02-26T05:58:50;11.48;;;5.50;;
71771;SDS011;59606;52.138;5.424;2024-02-26T06:01:17;10.45;;;5.15;;
71771;SDS011;59606;52.138;5.424;2024-02-26T06:03:44;11.10;;;5.20;;
71771;SDS011;59606;52.138;5.424;2024-02-26T06:06:11;11.27;;;5.93;;
71771;SDS011;59606;52.138;5.424;2024-02-26T06:08:38;10.60;;;4.80;;
71771;SDS011;59606;52.138;5.424;2024-02-26T06:11:05;9.95;;;4.90;;
71771;SDS011;59606;52.138;5.424;2024-02-26T06:13:36;14.05;;;5.40;;
71771;SDS011;59606;52.138;5.424;2024-02-26T06:16:03;11.35;;;5.45;;
71771;SDS011;59606;52.138;5.424;2024-02-26T06:18:30;11.68;;;4.80;;
71771;SDS011;59606;52.138;5.424;2024-02-26T06:21:00;13.67;;;5.57;;
71771;SDS011;59606;52.138;5.424;2024-02-26T06:23:27;11.02;;;5.57;;
71771;SDS011;59606;52.138;5.424;2024-02-26T06:25:56;15.35;;;5.78;;
71771;SDS011;59606;52.138;5.424;2024-02-26T06:28:32;12.93;;;5.65;;
71771;SDS011;59606;52.138;5.424;2024-02-26T06:31:04;13.55;;;5.82;;
71771;SDS011;59606;52.138;5.424;2024-02-26T06:33:31;12.60;;;5.77;;
71771;SDS011;59606;52.138;5.424;2024-02-26T06:35:58;14.10;;;5.82;;
71771;SDS011;59606;52.138;5.424;2024-02-26T06:38:31;11.55;;;5.55;;
71771;SDS011;59606;52.138;5.424;2024-02-26T06:41:08;13.88;;;6.00;;
71771;SDS011;59606;52.138;5.424;2024-02-26T06:43:35;14.05;;;6.40;;
71771;SDS011;59606;52.138;5.424;2024-02-26T06:46:05;14.73;;;6.33;;
71771;SDS011;59606;52.138;5.424;2024-02-26T06:48:35;13.77;;;6.28;;
71771;SDS011;59606;52.138;5.424;2024-02-26T06:51:03;15.20;;;6.28;;
71771;SDS011;59606;52.138;5.424;2024-02-26T06:53:30;11.88;;;5.80;;
71771;SDS011;59606;52.138;5.424;2024-02-26T06:55:56;16.83;;;6.65;;
71771;SDS011;59606;52.138;5.424;2024-02-26T06:58:30;15.00;;;6.57;;
71771;SDS011;59606;52.138;5.424;2024-02-26T07:00:56;13.80;;;6.53;;
71771;SDS011;59606;52.138;5.424;2024-02-26T07:03:30;17.15;;;7.07;;
71771;SDS011;59606;52.138;5.424;2024-02-26T07:05:57;16.33;;;6.30;;
71771;SDS011;59606;52.138;5.424;2024-02-26T07:08:26;14.20;;;6.40;;
71771;SDS011;59606;52.138;5.424;2024-02-26T07:11:08;18.50;;;6.97;;
71771;SDS011;59606;52.138;5.424;2024-02-26T07:13:35;17.15;;;6.57;;
71771;SDS011;59606;52.138;5.424;2024-02-26T07:16:05;19.67;;;7.47;;
71771;SDS011;59606;52.138;5.424;2024-02-26T07:18:32;19.60;;;8.30;;
71771;SDS011;59606;52.138;5.424;2024-02-26T07:21:08;18.15;;;8.57;;
71771;SDS011;59606;52.138;5.424;2024-02-26T07:23:35;17.00;;;6.90;;
71771;SDS011;59606;52.138;5.424;2024-02-26T07:26:02;18.17;;;7.85;;
71771;SDS011;59606;52.138;5.424;2024-02-26T07:28:29;19.67;;;7.63;;
71771;SDS011;59606;52.138;5.424;2024-02-26T07:30:56;23.00;;;8.43;;
71771;SDS011;59606;52.138;5.424;2024-02-26T07:33:29;20.77;;;7.88;;
71771;SDS011;59606;52.138;5.424;2024-02-26T07:35:58;18.90;;;8.87;;
71771;SDS011;59606;52.138;5.424;2024-02-26T07:38:32;18.98;;;8.35;;
71771;SDS011;59606;52.138;5.424;2024-02-26T07:41:09;22.88;;;9.95;;
71771;SDS011;59606;52.138;5.424;2024-02-26T07:43:35;20.88;;;7.63;;
71771;SDS011;59606;52.138;5.424;2024-02-26T07:46:05;22.75;;;9.55;;
71771;SDS011;59606;52.138;5.424;2024-02-26T07:48:31;20.00;;;8.20;;
71771;SDS011;59606;52.138;5.424;2024-02-26T07:51:05;20.77;;;8.95;;
71771;SDS011;59606;52.138;5.424;2024-02-26T07:53:35;22.55;;;9.50;;
71771;SDS011;59606;52.138;5.424;2024-02-26T07:56:02;20.98;;;9.73;;
71771;SDS011;59606;52.138;5.424;2024-02-26T07:58:29;21.63;;;9.70;;
71771;SDS011;59606;52.138;5.424;2024-02-26T08:00:56;19.93;;;8.43;;
71771;SDS011;59606;52.138;5.424;2024-02-26T08:03:26;23.65;;;9.90;;
71771;SDS011;59606;52.138;5.424;2024-02-26T08:05:57;17.20;;;7.82;;
71771;SDS011;59606;52.138;5.424;2024-02-26T08:08:29;21.17;;;10.60;;
71771;SDS011;59606;52.138;5.424;2024-02-26T08:10:56;19.10;;;9.27;;
71771;SDS011;59606;52.138;5.424;2024-02-26T08:13:30;19.70;;;9.80;;
71771;SDS011;59606;52.138;5.424;2024-02-26T08:15:57;17.17;;;8.50;;
71771;SDS011;59606;52.138;5.424;2024-02-26T08:18:29;20.95;;;9.07;;
71771;SDS011;59606;52.138;5.424;2024-02-26T08:21:03;18.48;;;8.93;;
71771;SDS011;59606;52.138;5.424;2024-02-26T08:23:29;18.42;;;8.35;;
71771;SDS011;59606;52.138;5.424;2024-02-26T08:25:57;21.13;;;8.07;;
71771;SDS011;59606;52.138;5.424;2024-02-26T08:28:34;21.35;;;8.85;;
71771;SDS011;59606;52.138;5.424;2024-02-26T08:31:01;18.23;;;8.25;;
71771;SDS011;59606;52.138;5.424;2024-02-26T08:33:29;15.68;;;7.03;;
71771;SDS011;59606;52.138;5.424;2024-02-26T08:36:06;13.98;;;6.68;;
71771;SDS011;59606;52.138;5.424;2024-02-26T08:38:34;15.90;;;7.37;;
71771;SDS011;59606;52.138;5.424;2024-02-26T08:41:02;16.95;;;7.80;;
71771;SDS011;59606;52.138;5.424;2024-02-26T08:43:29;13.55;;;6.90;;
71771;SDS011;59606;52.138;5.424;2024-02-26T08:45:56;13.18;;;6.15;;
71771;SDS011;59606;52.138;5.424;2024-02-26T08:48:27;16.58;;;6.07;;
71771;SDS011;59606;52.138;5.424;2024-02-26T08:51:04;9.87;;;5.10;;
71771;SDS011;59606;52.138;5.424;2024-02-26T08:53:35;12.20;;;5.63;;
71771;SDS011;59606;52.138;5.424;2024-02-26T08:56:09;11.65;;;5.28;;
71771;SDS011;59606;52.138;5.424;2024-02-26T08:58:37;10.32;;;5.05;;
71771;SDS011;59606;52.138;5.424;2024-02-26T09:01:04;12.30;;;5.40;;
71771;SDS011;59606;52.138;5.424;2024-02-26T09:03:30;11.57;;;5.40;;
71771;SDS011;59606;52.138;5.424;2024-02-26T09:06:01;12.68;;;5.40;;
71771;SDS011;59606;52.138;5.424;2024-02-26T09:08:29;11.73;;;5.22;;
71771;SDS011;59606;52.138;5.424;2024-02-26T09:10:56;12.02;;;5.43;;
71771;SDS011;59606;52.138;5.424;2024-02-26T09:13:23;12.27;;;5.25;;
71771;SDS011;59606;52.138;5.424;2024-02-26T09:15:50;9.83;;;4.13;;
71771;SDS011;59606;52.138;5.424;2024-02-26T09:18:21;11.18;;;5.00;;
71771;SDS011;59606;52.138;5.424;2024-02-26T09:20:49;10.38;;;5.47;;
71771;SDS011;59606;52.138;5.424;2024-02-26T09:23:28;9.90;;;4.68;;
71771;SDS011;59606;52.138;5.424;2024-02-26T09:25:58;10.32;;;5.10;;
71771;SDS011;59606;52.138;5.424;2024-02-26T09:28:28;11.40;;;4.83;;
71771;SDS011;59606;52.138;5.424;2024-02-26T09:30:57;12.43;;;5.18;;
71771;SDS011;59606;52.138;5.424;2024-02-26T09:33:33;9.45;;;4.55;;
71771;SDS011;59606;52.138;5.424;2024-02-26T09:36:00;10.70;;;5.68;;
71771;SDS011;59606;52.138;5.424;2024-02-26T09:38:28;11.02;;;4.22;;
71771;SDS011;59606;52.138;5.424;2024-02-26T09:41:02;8.03;;;4.13;;
71771;SDS011;59606;52.138;5.424;2024-02-26T09:43:33;13.20;;;4.85;;
71771;SDS011;59606;52.138;5.424;2024-02-26T09:46:02;9.65;;;4.30;;
71771;SDS011;59606;52.138;5.424;2024-02-26T09:48:31;10.10;;;4.57;;
71771;SDS011;59606;52.138;5.424;2024-02-26T09:51:03;9.10;;;3.85;;
71771;SDS011;59606;52.138;5.424;2024-02-26T09:53:31;9.00;;;3.57;;
71771;SDS011;59606;52.138;5.424;2024-02-26T09:56:02;8.88;;;4.05;;
71771;SDS011;59606;52.138;5.424;2024-02-26T09:58:33;7.15;;;3.42;;
71771;SDS011;59606;52.138;5.424;2024-02-26T10:01:08;11.52;;;3.90;;
71771;SDS011;59606;52.138;5.424;2024-02-26T10:03:57;11.80;;;3.85;;
71771;SDS011;59606;52.138;5.424;2024-02-26T10:06:27;9.60;;;4.10;;
71771;SDS011;59606;52.138;5.424;2024-02-26T10:08:56;8.48;;;3.92;;
71771;SDS011;59606;52.138;5.424;2024-02-26T10:11:25;8.77;;;3.58;;
71771;SDS011;59606;52.138;5.424;2024-02-26T10:13:54;8.80;;;3.97;;
71771;SDS011;59606;52.138;5.424;2024-02-26T10:16:20;10.27;;;4.15;;
71771;SDS011;59606;52.138;5.424;2024-02-26T10:18:48;7.13;;;3.80;;
71771;SDS011;59606;52.138;5.424;2024-02-26T10:21:25;8.60;;;4.10;;
71771;SDS011;59606;52.138;5.424;2024-02-26T10:23:52;8.13;;;3.60;;
71771;SDS011;59606;52.138;5.424;2024-02-26T10:26:19;9.02;;;3.88;;
71771;SDS011;59606;52.138;5.424;2024-02-26T10:28:46;8.05;;;3.65;;
71771;SDS011;59606;52.138;5.424;2024-02-26T10:31:18;8.57;;;3.93;;
71771;SDS011;59606;52.138;5.424;2024-02-26T10:33:45;10.10;;;3.17;;
71771;SDS011;59606;52.138;5.424;2024-02-26T10:36:12;9.82;;;4.32;;
71771;SDS011;59606;52.138;5.424;2024-02-26T10:38:39;9.75;;;4.30;;
71771;SDS011;59606;52.138;5.424;2024-02-26T10:41:06;10.13;;;4.32;;
71771;SDS011;59606;52.138;5.424;2024-02-26T10:43:33;8.20;;;3.93;;
71771;SDS011;59606;52.138;5.424;2024-02-26T10:46:00;8.88;;;4.00;;
71771;SDS011;59606;52.138;5.424;2024-02-26T10:48:28;7.95;;;3.25;;
71771;SDS011;59606;52.138;5.424;2024-02-26T10:50:55;8.23;;;3.22;;
71771;SDS011;59606;52.138;5.424;2024-02-26T10:53:29;6.88;;;3.13;;
71771;SDS011;59606;52.138;5.424;2024-02-26T10:56:04;8.40;;;3.87;;
71771;SDS011;59606;52.138;5.424;2024-02-26T10:58:32;7.50;;;3.67;;
71771;SDS011;59606;52.138;5.424;2024-02-26T11:01:05;6.63;;;3.03;;
71771;SDS011;59606;52.138;5.424;2024-02-26T11:03:32;9.48;;;3.83;;
71771;SDS011;59606;52.138;5.424;2024-02-26T11:06:02;8.27;;;3.53;;
71771;SDS011;59606;52.138;5.424;2024-02-26T11:08:30;9.67;;;3.00;;
71771;SDS011;59606;52.138;5.424;2024-02-26T11:10:59;8.65;;;3.65;;
71771;SDS011;59606;52.138;5.424;2024-02-26T11:13:28;8.23;;;3.20;;
71771;SDS011;59606;52.138;5.424;2024-02-26T11:16:00;8.98;;;4.03;;
71771;SDS011;59606;52.138;5.424;2024-02-26T11:18:28;9.07;;;3.60;;
71771;SDS011;59606;52.138;5.424;2024-02-26T11:20:58;8.20;;;3.47;;
71771;SDS011;59606;52.138;5.424;2024-02-26T11:23:30;8.38;;;3.63;;
71771;SDS011;59606;52.138;5.424;2024-02-26T11:26:01;7.78;;;3.97;;
71771;SDS011;59606;52.138;5.424;2024-02-26T11:28:31;9.02;;;3.90;;
71771;SDS011;59606;52.138;5.424;2024-02-26T11:31:04;7.68;;;3.65;;
71771;SDS011;59606;52.138;5.424;2024-02-26T11:33:33;7.53;;;3.77;;
71771;SDS011;59606;52.138;5.424;2024-02-26T11:36:07;10.05;;;4.30;;
71771;SDS011;59606;52.138;5.424;2024-02-26T11:38:36;8.85;;;3.55;;
71771;SDS011;59606;52.138;5.424;2024-02-26T11:41:06;9.55;;;3.75;;
71771;SDS011;59606;52.138;5.424;2024-02-26T11:46:32;8.83;;;4.07;;
71771;SDS011;59606;52.138;5.424;2024-02-26T11:49:00;7.03;;;3.53;;
71771;SDS011;59606;52.138;5.424;2024-02-26T11:51:32;7.75;;;3.80;;
71771;SDS011;59606;52.138;5.424;2024-02-26T11:54:01;8.65;;;3.78;;
71771;SDS011;59606;52.138;5.424;2024-02-26T11:56:28;13.25;;;6.65;;
71771;SDS011;59606;52.138;5.424;2024-02-26T12:01:43;10.77;;;5.53;;
71771;SDS011;59606;52.138;5.424;2024-02-26T12:04:16;12.77;;;6.00;;
71771;SDS011;59606;52.138;5.424;2024-02-26T12:06:50;11.65;;;4.25;;
71771;SDS011;59606;52.138;5.424;2024-02-26T12:12:18;10.00;;;4.43;;
71771;SDS011;59606;52.138;5.424;2024-02-26T12:14:53;7.88;;;3.95;;
71771;SDS011;59606;52.138;5.424;2024-02-26T12:17:25;9.15;;;4.20;;
71771;SDS011;59606;52.138;5.424;2024-02-26T12:19:52;10.05;;;4.70;;
71771;SDS011;59606;52.138;5.424;2024-02-26T12:22:20;8.18;;;3.90;;
71771;SDS011;59606;52.138;5.424;2024-02-26T12:24:47;9.97;;;4.17;;
71771;SDS011;59606;52.138;5.424;2024-02-26T12:27:13;8.88;;;4.18;;
71771;SDS011;59606;52.138;5.424;2024-02-26T12:29:43;9.07;;;4.10;;
71771;SDS011;59606;52.138;5.424;2024-02-26T12:32:09;9.50;;;4.10;;
71771;SDS011;59606;52.138;5.424;2024-02-26T12:34:37;10.23;;;4.65;;
71771;SDS011;59606;52.138;5.424;2024-02-26T12:37:04;10.70;;;5.57;;
71771;SDS011;59606;52.138;5.424;2024-02-26T12:39:30;9.40;;;4.32;;
71771;SDS011;59606;52.138;5.424;2024-02-26T12:41:58;11.50;;;6.00;;
71771;SDS011;59606;52.138;5.424;2024-02-26T12:44:26;10.60;;;5.20;;
71771;SDS011;59606;52.138;5.424;2024-02-26T12:47:02;12.10;;;5.22;;
71771;SDS011;59606;52.138;5.424;2024-02-26T12:49:30;9.87;;;4.30;;
71771;SDS011;59606;52.138;5.424;2024-02-26T12:51:57;7.82;;;4.05;;
71771;SDS011;59606;52.138;5.424;2024-02-26T12:54:31;10.15;;;5.60;;
71771;SDS011;59606;52.138;5.424;2024-02-26T12:57:02;18.90;;;9.95;;
71771;SDS011;59606;52.138;5.424;2024-02-26T12:59:33;8.15;;;3.80;;
71771;SDS011;59606;52.138;5.424;2024-02-26T13:02:01;15.40;;;6.67;;
71771;SDS011;59606;52.138;5.424;2024-02-26T13:04:33;9.88;;;4.75;;
71771;SDS011;59606;52.138;5.424;2024-02-26T13:07:03;10.95;;;6.85;;
71771;SDS011;59606;52.138;5.424;2024-02-26T13:09:34;10.43;;;4.47;;
71771;SDS011;59606;52.138;5.424;2024-02-26T13:12:05;8.93;;;4.55;;
71771;SDS011;59606;52.138;5.424;2024-02-26T13:14:33;8.03;;;3.90;;
71771;SDS011;59606;52.138;5.424;2024-02-26T13:17:00;9.55;;;4.00;;
71771;SDS011;59606;52.138;5.424;2024-02-26T13:19:27;8.82;;;3.70;;
71771;SDS011;59606;52.138;5.424;2024-02-26T13:21:54;7.25;;;3.20;;
71771;SDS011;59606;52.138;5.424;2024-02-26T13:24:21;8.07;;;3.88;;
71771;SDS011;59606;52.138;5.424;2024-02-26T13:26:55;8.20;;;3.50;;
71771;SDS011;59606;52.138;5.424;2024-02-26T13:29:22;8.20;;;3.40;;
71771;SDS011;59606;52.138;5.424;2024-02-26T13:31:55;7.90;;;3.58;;
71771;SDS011;59606;52.138;5.424;2024-02-26T13:34:24;8.20;;;3.72;;
71771;SDS011;59606;52.138;5.424;2024-02-26T13:36:54;9.18;;;3.80;;
71771;SDS011;59606;52.138;5.424;2024-02-26T13:39:22;6.50;;;2.77;;
71771;SDS011;59606;52.138;5.424;2024-02-26T13:41:54;10.75;;;3.80;;
71771;SDS011;59606;52.138;5.424;2024-02-26T13:44:21;11.38;;;4.32;;
71771;SDS011;59606;52.138;5.424;2024-02-26T13:46:48;8.48;;;3.65;;
71771;SDS011;59606;52.138;5.424;2024-02-26T13:49:15;6.65;;;3.15;;
71771;SDS011;59606;52.138;5.424;2024-02-26T13:51:42;8.17;;;3.73;;
71771;SDS011;59606;52.138;5.424;2024-02-26T13:54:10;8.48;;;4.07;;
71771;SDS011;59606;52.138;5.424;2024-02-26T13:56:37;7.88;;;4.05;;
71771;SDS011;59606;52.138;5.424;2024-02-26T13:59:04;8.05;;;4.18;;
71771;SDS011;59606;52.138;5.424;2024-02-26T14:01:31;8.70;;;5.15;;
71771;SDS011;59606;52.138;5.424;2024-02-26T14:03:59;8.87;;;4.60;;
71771;SDS011;59606;52.138;5.424;2024-02-26T14:06:29;8.63;;;3.95;;
71771;SDS011;59606;52.138;5.424;2024-02-26T14:08:57;9.18;;;3.72;;
71771;SDS011;59606;52.138;5.424;2024-02-26T14:11:25;5.85;;;3.05;;
71771;SDS011;59606;52.138;5.424;2024-02-26T14:13:51;10.27;;;3.28;;
71771;SDS011;59606;52.138;5.424;2024-02-26T14:16:18;7.33;;;4.00;;
71771;SDS011;59606;52.138;5.424;2024-02-26T14:18:46;9.73;;;4.07;;
71771;SDS011;59606;52.138;5.424;2024-02-26T14:21:13;8.35;;;3.10;;
71771;SDS011;59606;52.138;5.424;2024-02-26T14:23:40;6.22;;;3.10;;
71771;SDS011;59606;52.138;5.424;2024-02-26T14:26:08;6.93;;;2.92;;
71771;SDS011;59606;52.138;5.424;2024-02-26T14:28:35;6.70;;;3.07;;
71771;SDS011;59606;52.138;5.424;2024-02-26T14:31:02;9.52;;;3.67;;
71771;SDS011;59606;52.138;5.424;2024-02-26T14:33:30;7.38;;;3.65;;
71771;SDS011;59606;52.138;5.424;2024-02-26T14:35:57;6.65;;;3.28;;
71771;SDS011;59606;52.138;5.424;2024-02-26T14:38:25;6.88;;;3.30;;
71771;SDS011;59606;52.138;5.424;2024-02-26T14:40:52;6.87;;;2.97;;
71771;SDS011;59606;52.138;5.424;2024-02-26T14:43:23;8.00;;;3.22;;
71771;SDS011;59606;52.138;5.424;2024-02-26T14:45:50;9.73;;;3.10;;
71771;SDS011;59606;52.138;5.424;2024-02-26T14:48:16;4.60;;;2.35;;
71771;SDS011;59606;52.138;5.424;2024-02-26T14:50:43;7.13;;;3.13;;
71771;SDS011;59606;52.138;5.424;2024-02-26T14:53:11;7.23;;;2.50;;
71771;SDS011;59606;52.138;5.424;2024-02-26T14:55:37;5.20;;;2.45;;
71771;SDS011;59606;52.138;5.424;2024-02-26T14:58:07;7.15;;;2.72;;
71771;SDS011;59606;52.138;5.424;2024-02-26T15:00:38;6.50;;;2.30;;